Aktualne dane pomiarowe

Uwaga, wersja testowa! Automatyczne pobieranie danych za pomocą narzędzi lub skryptów to umożliwiających jest zabronione.

Dane meteo z obszaru Polski uzyskane na podstawie depesz SYNOP pobieranych co godzinę z NWS. Najedź myszką na symbol przedstawiony w tabeli, aby uzyskać informacje co do jego znaczenia. Prosimy pamiętać, że to testowa wersja strony, która jeszcze nie jest ukończona. Stworzono również jest krótki FAQ dotyczący korzystania z tej podstrony Anomalie temperatury w chwili obecnej odniesione są do okresu referencyjnego 1951-2016. Okres ten będzie później zmieniony na 1981-2010. Kliknij ikonę aby pobrać plik CSV. Kliknij ikonę aby wygenerować mapę synoptyczną dla danego terminu.

Wybierz Datę:    

        

Wieluń (12455)

Dane terminowe dla wybranej stacji. Kliknij datę, aby otrzymać dane z tego terminu dla wszystkich stacji.

TemperaturaZachmurzenieWiatrCiśnienieOpadyPogoda
 Data t td wb tx tn tg rh  Nt Nl Cl Cm Ch ws wd g1 g2 wx mslp ppp ch 24h 12h t ww ww w1 w2  
2019-08-08 23:00:00 17.3 12.2 14.0--- 7250.0wx-wx2wx--21012.6 989.2 0.6---------
2019-08-08 22:00:00 17.6 12.3 14.2--- 7150.0wx-wx1wx--11012.5 989.1 0.5---wx---
2019-08-08 21:00:00 19.5 11.5 14.5--- 6050.0wxwxwxwx2wx--21012.2 989.0 0.8---wx---
2019-08-08 20:00:00 19.0 11.8 14.5--- 6340.0wxwxwxwxwx1wx---1011.9 988.6 0.4---------
2019-08-08 19:00:00 20.9 12.3 15.5--- 5830.0wxwxwxwxwx3wx--31011.7 988.6 0.7---------
2019-08-08 18:00:00 21.8 10.0 14.8 26.7 17.9- 4740.0wxwxwxwxwx1wx-811011.2 988.2 0.2- 0.012------
2019-08-08 17:00:00 23.8 10.8 16.0--- 4445.0wxwxwxwx2wx-821011.1 988.2 0.2---------
2019-08-08 16:00:00 25.5 10.5 16.6--- 3930.0wxwxwxwxwx3wx---1010.6 987.9 -0.4---------
2019-08-08 15:00:00 25.3 10.0 16.3--- 3835.0wxwxwxwxwx3wx8831010.8 988.0 -0.5---------
2019-08-08 14:00:00 25.3 9.6 16.1--- 3735.0wxwxwxwxwx3wx--31010.8 988.0 -0.4---------
2019-08-08 13:00:00 25.0 10.1 16.2--- 3930.0wxwxwxwx3wx-831011.1 988.3 0.2---------
2019-08-08 12:00:00 24.6 10.8 16.4--- 4235.0wxwxwxwx4wx-1041011.3 988.5 0.5- 0.06------
2019-08-08 11:00:00 24.4 9.9 15.9--- 4045.0wxwxwxwx5wx-1051011.2 988.4 0.9---------
2019-08-08 10:00:00 24.0 12.0 16.7--- 4726.0wxwxwx5wx-1051011.0 988.1 0.9---------
2019-08-08 09:00:00 22.1 13.4 16.6--- 5835.0wxwxwx5wx101051011.0 988.0 1.3---------
2019-08-08 08:00:00 21.6 15.9 17.8--- 7030.0wxwxwx5wx--51010.5 987.5 1.5---------
2019-08-08 07:00:00 19.6 16.4 17.4--- 8219.0wxwxwx3wx--31010.4 987.2 2.0---------
2019-08-08 06:00:00 17.9 16.6 17.0 25.2 16.6 16 9210.0wxwxwx3wx--31010.0 986.7 1.8 2.9 3.012wx-w1- 4.3
2019-08-08 05:00:00 17.2 16.2 16.5--- 9410.0wxwxwx4wx---1009.4 986.0 1.4---------
2019-08-08 04:00:00 16.7 16.1 16.2--- 9610.0wxwxwxwxwx4wx---1008.6 985.2 1.0---------
2019-08-08 03:00:00 16.9 16.4 16.5--- 977.0wxwxwxwx3wx--31008.2 984.9 1.0---wx-w1--
2019-08-08 02:00:00 17.3 16.7 16.8--- 968.0wxwxwx3wx--31007.9 984.6 0.9---wx---
2019-08-08 01:00:00 17.3 16.7 16.8--- 9615.0wxwxwx3wx--31007.5 984.2 0.2---wx---
2019-08-08 00:00:00 17.7 16.9 17.1--- 9516.0wxwxwx4wx--41007.2 983.9 0.0- 3.06wx-w1w2--
2019-08-07 23:00:00 18.8 17.8 18.1--- 946.0wxwxwxwx3wx--31006.9 983.7 0.7---wx-w1w2--
2019-08-07 22:00:00 19.0 17.7 18.0--- 9211.0wxwxwxwx1wx--11007.2 984.0 1.2---wx-w1--
2019-08-07 21:00:00 19.6 17.7 18.2--- 8929.0wxwxwxwx2wx--21007.0 983.9 1.6---wx-w1w2--
2019-08-07 20:00:00 20.0 17.6 18.3--- 8635.0wxwxwxwxwx3wx---1006.1 983.0 0.3---wx-w1--
2019-08-07 19:00:00 23.9 16.4 18.9--- 6325.0wxwxwx2wx---1005.5 982.8 -0.5---wx---
2019-08-07 18:00:00 25.2 15.5 18.9 28.0 20.4- 5545.0wxwxwxwxwx1wx-811004.9 982.3 -1.0--12------
2019-08-07 17:00:00 26.8 15.5 19.6--- 5040.0wxwxwxwxwx2wx--21005.2 982.7 -1.2---------
2019-08-07 16:00:00 26.4 15.1 19.2--- 5050.0wxwxwxwxwx2wx--21005.9 983.3 -1.3---------
2019-08-07 15:00:00 26.8 14.5 19.0--- 4740.0wxwxwxwxwx3wx-831005.8 983.3 -1.8---------
2019-08-07 14:00:00 27.2 13.9 18.9--- 4435.0wxwxwxwxwx3wx---1006.4 983.9 -1.9---------
2019-08-07 13:00:00 25.9 15.3 19.1--- 5235.0wxwxwxwxwx3wx--31007.2 984.6 -1.3---------
2019-08-07 12:00:00 24.0 16.3 18.9--- 6235.0wxwxwxwxwx3wx--31007.9 985.1 -1.0--6wx-w1--
2019-08-07 11:00:00 23.4 16.2 18.6--- 6445.0wxwxwxwxwx2wx--21008.7 985.8 0.2---------
2019-08-07 10:00:00 22.3 15.9 18.0--- 6745.0wx-wx2wx--21008.8 985.9 0.0---wx---
2019-08-07 09:00:00 22.5 15.8 18.1--- 6630.0wxwxwx2wx---1009.0 986.1 0.6---wx---
2019-08-07 08:00:00 21.6 15.4 17.5--- 6830.0wxwxwx1wx--11008.6 985.6 0.1---wx---
2019-08-07 07:00:00 21.7 15.8 17.8--- 6930.0wxwxwxwxwx2wx--21008.9 985.9 0.3---------
2019-08-07 06:00:00 20.4 16.0 17.4 25.0 17.7 16 7630.0wx-wxwx1wx--11008.6 985.5 0.0- 0.012----- 9.6
2019-08-07 05:00:00 19.3 16.0 17.0--- 8130.0wxwxwx2wx--21008.7 985.5 0.0---------
2019-08-07 04:00:00 18.5 15.7 16.5--- 8428.0wx-wxwx2wx---1008.8 985.6 0.0---------
2019-08-07 03:00:00 18.5 15.7 16.5--- 8430.0wx-wxwx2wx--21008.7 985.5 -0.2---------
2019-08-07 02:00:00 17.8 15.1 15.9--- 8435.0wx-wxwx1wx--11008.8 985.5 -0.6---------
2019-08-07 01:00:00 19.2 15.3 16.5--- 7845.0wx-wx2wx--21008.8 985.6 -0.6---------
2019-08-07 00:00:00 19.7 15.6 16.9--- 7735.0wx-wx1wx--11008.8 985.7 0.0- 0.06wx-w1--
1.2 ms

 

Print Friendly, PDF & Email